This is the latest recevied weather packets stored in our database for station/object KX4O-13. If no packets are shown the sender has not sent any weather packets the latest 10 day(s).
| Time | Temp. | Humidity | Pressure | Rain* | Wind** | Luminosity | Snow |
|---|---|---|---|---|---|---|---|
| 1777696859 | 11.67° C | 72% | 1012.6 hPa | 0 mm | - | 0 W/m² | - |
| 1777696559 | 11.11° C | 73% | 1012.8 hPa | 0 mm | - | 0 W/m² | - |
| 1777696259 | 11.11° C | 73% | 1012.9 hPa | 0 mm | - | 0 W/m² | - |
| 1777695959 | 11.67° C | 73% | 1013 hPa | 0 mm | - | 0 W/m² | - |
| 1777695659 | 11.11° C | 74% | 1013 hPa | 0 mm | - | 0 W/m² | - |
| 1777695359 | 11.11° C | 75% | 1013 hPa | 0 mm | - | 0 W/m² | - |
| 1777695059 | 11.11° C | 74% | 1012.8 hPa | 0.25 mm | - | 0 W/m² | - |
| 1777694759 | 11.11° C | 73% | 1012.8 hPa | 0.25 mm | - | 0 W/m² | - |
| 1777694459 | 11.67° C | 73% | 1012.8 hPa | 0.25 mm | - | 0 W/m² | - |
| 1777694159 | 11.67° C | 72% | 1012.7 hPa | 0.25 mm | - | 0 W/m² | - |
| 1777693859 | 12.22° C | 72% | 1012.7 hPa | 0.25 mm | - | 0 W/m² | - |
| 1777693559 | 12.22° C | 70% | 1012.7 hPa | 0.25 mm | - | 0 W/m² | - |
| 1777693259 | 12.78° C | 70% | 1012.6 hPa | 0.25 mm | - | 0 W/m² | - |
| 1777692959 | 12.22° C | 72% | 1012.4 hPa | 0.25 mm | - | 0 W/m² | - |
| 1777692659 | 12.22° C | 74% | 1012.3 hPa | 0.25 mm | - | 0 W/m² | - |
| 1777692359 | 11.67° C | 79% | 1012.2 hPa | 0.25 mm | - | 0 W/m² | - |
| 1777692059 | 11.67° C | 80% | 1012.3 hPa | 0.25 mm | - | 0 W/m² | - |
| 1777691759 | 11.67° C | 79% | 1012.2 hPa | 0.25 mm | - | 0 W/m² | - |
| 1777691459 | 12.22° C | 77% | 1012.1 hPa | 0 mm | - | 0 W/m² | - |
| 1777691159 | 11.67° C | 81% | 1012 hPa | 0 mm | - | 0 W/m² | - |
| 1777690859 | 12.22° C | 77% | 1011.9 hPa | 0 mm | - | 0 W/m² | - |
| 1777690559 | 12.22° C | 78% | 1011.6 hPa | 0 mm | - | 0 W/m² | - |
| 1777690259 | 12.22° C | 77% | 1011.6 hPa | 0 mm | - | 0 W/m² | - |
| 1777689959 | 12.22° C | 74% | 1011.4 hPa | 0 mm | - | 0 W/m² | - |
| 1777689659 | 12.22° C | 76% | 1011.5 hPa | 0 mm | - | 0 W/m² | - |
* Rain latest hour (hover to see other rain measurements)
** Current wind speed in m/s (hover to see current wind gust speed)